createdAt,value
2023-01-17T08:16:18.662Z,98349.25
2023-01-17T08:17:21.676Z,98351.63
2023-01-17T08:18:23.255Z,98346.78
2023-01-17T08:19:25.883Z,98349.81
2023-01-17T08:20:28.102Z,98346.81
2023-01-17T08:21:30.898Z,98349.72
2023-01-17T08:22:32.456Z,98350.97
2023-01-17T08:23:38.910Z,98348.78
2023-01-17T08:24:41.810Z,98354.56
2023-01-17T08:25:44.338Z,98359.38
2023-01-17T08:26:45.864Z,98351.25
2023-01-17T08:27:48.371Z,98356.09
2023-01-17T08:28:55.682Z,98362.72
2023-01-17T08:29:58.293Z,98356.38
2023-01-17T08:31:11.202Z,98356.91
2023-01-17T08:32:25.226Z,98361.88
2023-01-17T08:33:36.963Z,98362.44
2023-01-17T08:34:49.548Z,98357.75
2023-01-17T08:35:53.421Z,98362.72
2023-01-17T08:36:56.210Z,98362.44
2023-01-17T08:38:09.800Z,98361.19
2023-01-17T08:39:23.002Z,98367.94
2023-01-17T08:40:35.527Z,98356.22
2023-01-17T08:41:47.167Z,98361.19
2023-01-17T08:42:56.721Z,98362.69
2023-01-17T08:44:09.297Z,98364.91
2023-01-17T08:45:17.962Z,98360.22
2023-01-17T08:46:32.173Z,98364.19
2023-01-17T08:47:46.781Z,98365.56
2023-01-17T08:49:01.194Z,98367.09
2023-01-17T08:50:03.468Z,98366.78
2023-01-17T08:51:07.434Z,98367.34
2023-01-17T08:52:13.005Z,98369.84
2023-01-17T08:53:25.722Z,98367.91
2023-01-17T08:54:37.289Z,98370.94
2023-01-17T08:55:51.158Z,98369.81
2023-01-17T08:57:04.998Z,98376.44
2023-01-17T08:58:07.589Z,98380.69
2023-01-17T08:59:11.576Z,98375.31
2023-01-17T09:00:24.216Z,98374.50
2023-01-17T09:01:41.632Z,98374.50
2023-01-17T09:02:55.700Z,98371.88
2023-01-17T09:04:08.709Z,98372.69
2023-01-17T09:05:13.460Z,98373.53
2023-01-17T09:06:25.996Z,98368.28
2023-01-17T09:07:38.779Z,98365.66
2023-01-17T09:08:54.697Z,98367.34
2023-01-17T09:10:07.001Z,98369.97
2023-01-17T09:11:11.144Z,98365.66
2023-01-17T09:12:13.872Z,98365.66
2023-01-17T09:13:16.865Z,98357.09
2023-01-17T09:14:19.437Z,98369.25
2023-01-17T09:15:22.016Z,98370.91
2023-01-17T09:16:23.549Z,98376.16
2023-01-17T09:17:26.079Z,98376.16
2023-01-17T09:18:37.041Z,98373.53
2023-01-17T09:19:49.615Z,98373.53
2023-01-17T09:21:10.871Z,98385.81
2023-01-17T09:22:13.489Z,98377.94
2023-01-17T09:23:15.098Z,98380.69
2023-01-17T09:24:17.661Z,98374.78
2023-01-17T09:25:20.152Z,98379.34
2023-01-17T09:26:25.640Z,98383.91
2023-01-17T09:27:27.289Z,98380.59
2023-01-17T09:28:29.980Z,98377.97
2023-01-17T09:29:32.518Z,98377.31
2023-01-17T09:30:35.065Z,98382.56
2023-01-17T09:31:36.619Z,98381.00
2023-01-17T09:32:39.487Z,98380.19
2023-01-17T09:33:48.234Z,98382.13
2023-01-17T09:34:49.996Z,98380.47
2023-01-17T09:36:05.286Z,98373.44
2023-01-17T09:37:09.543Z,98382.81
2023-01-17T09:38:11.412Z,98385.31
2023-01-17T09:39:15.178Z,98380.06
2023-01-17T09:40:23.682Z,98384.19
2023-01-17T09:41:29.352Z,98387.63
2023-01-17T09:42:35.696Z,98383.34
2023-01-17T09:43:43.861Z,98384.34
2023-01-17T09:44:54.042Z,98386.13
2023-01-17T09:45:56.609Z,98390.53
2023-01-17T09:47:03.548Z,98382.81
2023-01-17T09:48:11.026Z,98392.50
2023-01-17T09:49:34.224Z,98398.53
2023-01-17T09:50:45.136Z,98391.66
2023-01-17T09:51:47.626Z,98390.66
2023-01-17T09:52:49.493Z,98389.88
2023-01-17T09:53:54.010Z,98396.91
2023-01-17T09:54:56.656Z,98394.97
2023-01-17T09:56:03.115Z,98394.97
2023-01-17T09:57:15.805Z,98395.66
2023-01-17T09:58:24.687Z,98398.00
2023-01-17T09:59:35.805Z,98393.44
2023-01-17T10:00:49.376Z,98395.78
2023-01-17T10:02:01.273Z,98394.66
2023-01-17T10:03:24.722Z,98399.63
2023-01-17T10:04:48.873Z,98406.41
2023-01-17T10:06:02.264Z,98395.75
2023-01-17T10:07:29.369Z,98398.25
2023-01-17T10:08:48.513Z,98399.88
2023-01-17T10:10:11.886Z,98398.91
2023-01-17T10:11:41.724Z,98405.00
2023-01-17T10:12:54.424Z,98397.97
2023-01-17T10:14:10.799Z,98407.47
2023-01-17T10:15:32.687Z,98413.41
2023-01-17T10:16:44.703Z,98406.22
2023-01-17T10:17:55.425Z,98409.56
2023-01-17T10:19:14.438Z,98414.50
2023-01-17T10:20:35.659Z,98410.91
2023-01-17T10:22:01.996Z,98409.81
2023-01-17T10:23:22.731Z,98411.44
2023-01-17T10:25:12.908Z,98409.34
2023-01-17T10:26:18.766Z,98420.56
2023-01-17T10:27:25.677Z,98414.31
2023-01-17T10:28:35.208Z,98413.38
2023-01-17T10:29:37.068Z,98416.66
2023-01-17T10:30:45.025Z,98413.91
2023-01-17T10:31:52.625Z,98411.13
2023-01-17T10:32:56.979Z,98407.53
2023-01-17T10:34:06.913Z,98408.22
2023-01-17T10:35:21.063Z,98405.59
2023-01-17T10:36:28.758Z,98406.41
2023-01-17T10:37:40.317Z,98409.75
2023-01-17T10:38:47.091Z,98411.25
2023-01-17T10:39:51.046Z,98404.19
2023-01-17T10:40:57.231Z,98399.63
2023-01-17T10:42:07.465Z,98404.75
2023-01-17T10:43:18.910Z,98408.03
2023-01-17T10:44:26.695Z,98404.59
2023-01-17T10:45:40.751Z,98398.50
2023-01-17T10:46:48.136Z,98398.50
2023-01-17T10:47:58.958Z,98406.09
2023-01-17T10:49:17.468Z,98400.84
2023-01-17T10:50:34.318Z,98402.50
2023-01-17T10:51:59.974Z,98398.19
2023-01-17T10:53:10.693Z,98401.94
2023-01-17T10:54:24.443Z,98398.66
2023-01-17T10:55:38.860Z,98405.03
2023-01-17T10:56:42.158Z,98404.31
2023-01-17T10:57:46.531Z,98400.88
2023-01-17T10:58:50.488Z,98402.00
2023-01-17T10:59:54.804Z,98398.69
2023-01-17T11:01:01.127Z,98403.94
2023-01-17T11:02:06.854Z,98393.44
2023-01-17T11:03:11.499Z,98398.53
2023-01-17T11:04:20.659Z,98393.81
2023-01-17T11:05:28.341Z,98400.44
2023-01-17T11:06:33.901Z,98397.53
2023-01-17T11:07:39.947Z,98388.53
2023-01-17T11:08:52.076Z,98387.44
2023-01-17T11:09:55.995Z,98386.44
2023-01-17T11:11:04.987Z,98389.78
2023-01-17T11:12:17.779Z,98384.53
2023-01-17T11:13:33.067Z,98387.81
2023-01-17T11:14:35.905Z,98386.84
2023-01-17T11:15:41.802Z,98373.72
2023-01-17T11:16:44.752Z,98372.88
2023-01-17T11:17:52.987Z,98372.72
2023-01-17T11:19:15.664Z,98377.00
2023-01-17T11:20:33.295Z,98369.13
2023-01-17T11:21:38.740Z,98364.84
2023-01-17T11:22:46.885Z,98374.25
2023-01-17T11:23:51.305Z,98369.00
2023-01-17T11:24:59.994Z,98371.63
2023-01-17T11:26:13.895Z,98373.25
2023-01-17T11:27:25.584Z,98367.03
2023-01-17T11:28:30.612Z,98369.53
2023-01-17T11:29:36.821Z,98372.00
2023-01-17T11:30:52.523Z,98369.25
2023-01-17T11:31:57.079Z,98365.63
2023-01-17T11:33:01.396Z,98363.00
2023-01-17T11:34:14.841Z,98366.31
2023-01-17T11:35:20.197Z,98353.72
2023-01-17T11:36:27.971Z,98359.66
2023-01-17T11:37:29.633Z,98365.44
2023-01-17T11:38:33.618Z,98369.56
2023-01-17T11:39:35.382Z,98365.81
2023-01-17T11:40:40.468Z,98360.25
2023-01-17T11:41:42.194Z,98358.31
2023-01-17T11:42:44.716Z,98366.91
2023-01-17T11:43:53.018Z,98364.97
2023-01-17T11:44:55.532Z,98365.63
2023-01-17T11:46:14.456Z,98355.78
2023-01-17T11:47:19.905Z,98358.28
2023-01-17T11:48:24.714Z,98350.22
2023-01-17T11:49:26.917Z,98350.22
2023-01-17T11:50:32.532Z,98356.84
2023-01-17T11:51:41.848Z,98356.56
2023-01-17T11:52:43.984Z,98351.28
2023-01-17T11:53:49.007Z,98349.38
2023-01-17T11:54:53.829Z,98347.41
2023-01-17T11:56:05.071Z,98350.69
2023-01-17T11:57:21.045Z,98353.03
2023-01-17T11:58:24.091Z,98350.13
2023-01-17T11:59:33.400Z,98349.81
2023-01-17T12:00:45.824Z,98347.84
2023-01-17T12:01:58.595Z,98351.84
2023-01-17T12:03:26.651Z,98349.56
2023-01-17T12:04:36.392Z,98343.03
2023-01-17T12:05:51.173Z,98343.56
2023-01-17T12:07:08.440Z,98344.09
2023-01-17T12:08:19.670Z,98347.38
2023-01-17T12:09:35.049Z,98340.47
2023-01-17T12:10:45.121Z,98341.44
2023-01-17T12:12:14.287Z,98340.47
2023-01-17T12:13:53.379Z,98341.81
2023-01-17T12:15:09.595Z,98340.69
2023-01-17T12:16:29.544Z,98335.28
2023-01-17T12:17:48.980Z,98334.31
2023-01-17T12:19:06.591Z,98336.94
2023-01-17T12:20:21.263Z,98337.91
2023-01-17T12:21:36.176Z,98327.69
2023-01-17T12:23:02.532Z,98339.19
2023-01-17T12:24:28.945Z,98332.41
2023-01-17T12:25:54.459Z,98336.03
2023-01-17T12:27:07.871Z,98337.03
2023-01-17T12:28:25.791Z,98345.75
2023-01-17T12:29:51.228Z,98335.22
2023-01-17T12:31:06.880Z,98336.19
2023-01-17T12:32:36.824Z,98335.22
2023-01-17T12:33:48.002Z,98328.97
2023-01-17T12:34:55.481Z,98335.56
2023-01-17T12:36:02.421Z,98331.81
2023-01-17T12:37:21.873Z,98329.69
2023-01-17T12:38:33.651Z,98332.03
2023-01-17T12:39:39.335Z,98324.97
2023-01-17T12:40:50.040Z,98328.25
2023-01-17T12:42:00.308Z,98327.44
2023-01-17T12:43:08.830Z,98323.16
2023-01-17T12:44:16.084Z,98324.81
2023-01-17T12:45:24.632Z,98317.91
2023-01-17T12:46:31.924Z,98317.91
2023-01-17T12:47:41.137Z,98317.91
2023-01-17T12:48:45.158Z,98318.41
2023-01-17T12:49:53.534Z,98317.28
2023-01-17T12:51:03.752Z,98318.09
2023-01-17T12:52:14.620Z,98319.78
2023-01-17T12:53:27.175Z,98316.31
2023-01-17T12:54:37.463Z,98311.34
2023-01-17T12:55:49.710Z,98316.63
2023-01-17T12:56:55.531Z,98308.72
2023-01-17T12:58:00.135Z,98319.25
2023-01-17T12:59:13.045Z,98316.63
2023-01-17T13:00:19.539Z,98321.72
2023-01-17T13:01:39.801Z,98316.44
2023-01-17T13:02:50.712Z,98313.81
2023-01-17T13:04:03.154Z,98317.28
2023-01-17T13:05:12.246Z,98315.78
2023-01-17T13:06:25.964Z,98315.25
2023-01-17T13:07:38.255Z,98317.91
2023-01-17T13:08:46.376Z,98317.91
2023-01-17T13:09:53.246Z,98307.38
2023-01-17T13:11:00.117Z,98313.47
2023-01-17T13:12:05.986Z,98312.63
2023-01-17T13:13:22.196Z,98312.63
2023-01-17T13:14:24.925Z,98313.59
2023-01-17T13:15:35.092Z,98312.78
2023-01-17T13:16:43.060Z,98319.03
2023-01-17T13:17:49.499Z,98309.63
2023-01-17T13:18:53.407Z,98313.25
2023-01-17T13:20:00.951Z,98312.56
2023-01-17T13:21:21.632Z,98314.53
2023-01-17T13:22:26.984Z,98319.94
2023-01-17T13:23:33.295Z,98316.63
2023-01-17T13:24:45.191Z,98315.81
2023-01-17T13:25:58.182Z,98319.44
2023-01-17T13:27:17.789Z,98322.06
2023-01-17T13:28:37.318Z,98326.63
2023-01-17T13:29:52.122Z,98326.81
2023-01-17T13:31:10.088Z,98323.34
2023-01-17T13:32:27.442Z,98327.59
2023-01-17T13:33:42.230Z,98330.22
2023-01-17T13:35:12.401Z,98319.56
2023-01-17T13:36:29.707Z,98323.03
2023-01-17T13:37:56.828Z,98320.41
2023-01-17T13:39:42.846Z,98320.53
2023-01-17T13:40:51.631Z,98319.06
2023-01-17T13:42:09.488Z,98327.13
2023-01-17T13:43:14.635Z,98326.28
2023-01-17T13:44:26.734Z,98324.63
2023-01-17T13:45:30.818Z,98323.13
2023-01-17T13:47:00.826Z,98323.25
2023-01-17T13:48:29.851Z,98327.69
2023-01-17T13:49:34.413Z,98324.25
2023-01-17T13:50:48.720Z,98323.44
2023-01-17T13:52:09.491Z,98329.34
2023-01-17T13:53:48.652Z,98321.47
2023-01-17T13:54:53.230Z,98327.56
2023-01-17T13:56:02.843Z,98322.28
2023-01-17T13:57:42.013Z,98321.47
2023-01-17T13:59:03.081Z,98334.47
2023-01-17T14:00:50.466Z,98323.13
2023-01-17T14:01:53.211Z,98323.97
2023-01-17T14:03:12.793Z,98331.84
2023-01-17T14:04:22.189Z,98332.50
2023-01-17T14:05:49.103Z,98328.75
2023-01-17T14:06:55.388Z,98328.59
2023-01-17T14:08:01.873Z,98327.47
2023-01-17T14:09:11.196Z,98329.97
2023-01-17T14:10:29.368Z,98333.09
2023-01-17T14:11:34.369Z,98333.91
2023-01-17T14:12:40.011Z,98331.81
2023-01-17T14:13:41.743Z,98336.09
2023-01-17T14:14:52.680Z,98327.06
2023-01-17T14:15:55.377Z,98329.56
2023-01-17T14:17:26.543Z,98330.09
2023-01-17T14:18:34.930Z,98328.13
2023-01-17T14:19:37.012Z,98331.41
2023-01-17T14:20:46.658Z,98334.72
2023-01-17T14:21:50.213Z,98329.28
2023-01-17T14:22:55.926Z,98330.81
2023-01-17T14:24:07.386Z,98328.84
2023-01-17T14:25:14.990Z,98332.31
2023-01-17T14:26:49.766Z,98329.50
2023-01-17T14:28:02.843Z,98340.72
2023-01-17T14:29:43.798Z,98339.06
2023-01-17T14:30:46.947Z,98337.09
2023-01-17T14:31:49.217Z,98341.38
2023-01-17T14:33:10.983Z,98335.97
2023-01-17T14:34:13.768Z,98338.44
2023-01-17T14:35:23.197Z,98331.22
2023-01-17T14:36:30.724Z,98327.59
2023-01-17T14:37:46.847Z,98325.66
2023-01-17T14:38:48.438Z,98323.69
2023-01-17T14:39:52.419Z,98322.84
2023-01-17T14:40:56.931Z,98328.94
2023-01-17T14:41:58.511Z,98332.22
2023-01-17T14:43:06.694Z,98333.91
2023-01-17T14:44:12.131Z,98337.19
2023-01-17T14:45:22.508Z,98331.59
2023-01-17T14:46:33.114Z,98333.28
2023-01-17T14:47:37.947Z,98335.59
2023-01-17T14:48:41.792Z,98335.44
2023-01-17T14:49:44.069Z,98337.06
2023-01-17T14:50:54.962Z,98338.91
2023-01-17T14:52:00.690Z,98334.63
2023-01-17T14:53:27.873Z,98340.84
2023-01-17T14:54:29.604Z,98341.84
2023-01-17T14:55:32.181Z,98338.53
2023-01-17T14:56:34.950Z,98337.72
2023-01-17T14:57:36.647Z,98340.50
2023-01-17T14:58:41.150Z,98342.13
2023-01-17T14:59:42.702Z,98339.50
2023-01-17T15:00:46.501Z,98336.88
2023-01-17T15:02:06.330Z,98338.53
2023-01-17T15:03:12.230Z,98335.25
2023-01-17T15:04:26.616Z,98338.53
2023-01-17T15:05:29.849Z,98334.25
2023-01-17T15:06:39.795Z,98339.50
2023-01-17T15:07:45.809Z,98334.41
2023-01-17T15:08:53.841Z,98337.88
2023-01-17T15:09:56.340Z,98340.50
2023-01-17T15:11:02.981Z,98345.78
2023-01-17T15:12:15.536Z,98338.84
2023-01-17T15:13:43.449Z,98344.94
2023-01-17T15:14:48.015Z,98349.38
2023-01-17T15:15:49.586Z,98342.44
2023-01-17T15:16:52.306Z,98335.38
2023-01-17T15:18:08.224Z,98338.84
2023-01-17T15:19:12.218Z,98343.28
2023-01-17T15:20:16.597Z,98342.44
2023-01-17T15:21:30.766Z,98341.78
2023-01-17T15:22:33.269Z,98348.03
2023-01-17T15:23:39.121Z,98347.50
2023-01-17T15:24:45.124Z,98343.38
2023-01-17T15:25:47.623Z,98346.19
2023-01-17T15:26:50.652Z,98343.69
2023-01-17T15:27:55.183Z,98344.00
2023-01-17T15:29:05.160Z,98345.97
2023-01-17T15:30:12.496Z,98351.25
2023-01-17T15:31:17.886Z,98345.47
2023-01-17T15:32:22.293Z,98349.06
2023-01-17T15:33:24.894Z,98344.13
2023-01-17T15:34:29.591Z,98345.25
2023-01-17T15:35:31.678Z,98343.59
2023-01-17T15:36:34.890Z,98339.59
2023-01-17T15:37:40.455Z,98338.13
2023-01-17T15:38:50.375Z,98337.28
2023-01-17T15:40:06.203Z,98338.44
2023-01-17T15:41:23.488Z,98335.28
2023-01-17T15:42:28.407Z,98340.69
2023-01-17T15:43:35.702Z,98339.34
2023-01-17T15:44:48.401Z,98342.41
2023-01-17T15:46:01.646Z,98347.16
2023-01-17T15:47:05.119Z,98335.28
2023-01-17T15:48:35.416Z,98343.63
2023-01-17T15:49:37.915Z,98338.69
2023-01-17T15:50:39.714Z,98342.59
2023-01-17T15:51:48.531Z,98341.22
2023-01-17T15:52:53.021Z,98344.16
2023-01-17T15:53:54.635Z,98341.00
2023-01-17T15:55:01.125Z,98350.03
2023-01-17T15:56:20.579Z,98342.44
2023-01-17T15:57:28.789Z,98340.13
2023-01-17T15:58:30.804Z,98343.88
2023-01-17T15:59:45.656Z,98339.72
2023-01-17T16:00:48.407Z,98346.09
2023-01-17T16:01:55.582Z,98342.81
2023-01-17T16:02:59.268Z,98349.19
2023-01-17T16:04:29.699Z,98345.03
2023-01-17T16:05:43.307Z,98353.91
2023-01-17T16:06:54.905Z,98350.72
2023-01-17T16:08:26.010Z,98357.91
2023-01-17T16:09:28.625Z,98357.25
2023-01-17T16:10:32.114Z,98361.69
2023-01-17T16:11:34.696Z,98357.56
2023-01-17T16:12:41.306Z,98363.78
2023-01-17T16:13:47.098Z,98362.13
2023-01-17T16:15:06.275Z,98366.69
2023-01-17T16:16:21.274Z,98363.41
2023-01-17T16:17:24.498Z,98367.00
2023-01-17T16:18:27.459Z,98375.84
2023-01-17T16:19:30.454Z,98370.88
2023-01-17T16:20:36.687Z,98367.41
2023-01-17T16:21:40.472Z,98379.75
2023-01-17T16:22:44.956Z,98385.97
2023-01-17T16:23:47.861Z,98380.06
2023-01-17T16:24:50.430Z,98377.69
2023-01-17T16:25:53.859Z,98382.94
2023-01-17T16:26:56.422Z,98382.28
2023-01-17T16:27:59.128Z,98387.69
2023-01-17T16:29:01.681Z,98386.03
2023-01-17T16:30:04.726Z,98383.69
2023-01-17T16:31:06.547Z,98388.09
2023-01-17T16:32:09.454Z,98385.63
2023-01-17T16:33:12.942Z,98390.06
2023-01-17T16:34:15.497Z,98385.78
2023-01-17T16:35:28.276Z,98388.53
2023-01-17T16:36:30.762Z,98392.28
2023-01-17T16:37:32.357Z,98389.81
2023-01-17T16:38:34.907Z,98395.88
2023-01-17T16:39:37.658Z,98387.31
2023-01-17T16:40:40.690Z,98391.75
2023-01-17T16:41:43.278Z,98390.06
2023-01-17T16:42:45.126Z,98394.53
2023-01-17T16:43:56.923Z,98392.88
2023-01-17T16:45:05.670Z,98391.19
2023-01-17T16:46:21.553Z,98403.50
2023-01-17T16:47:26.403Z,98396.75
2023-01-17T16:48:30.299Z,98405.59
2023-01-17T16:49:42.800Z,98400.50
2023-01-17T16:50:55.401Z,98402.28
2023-01-17T16:51:56.945Z,98404.25
2023-01-17T16:52:59.472Z,98406.16
2023-01-17T16:54:02.561Z,98399.28
2023-01-17T16:55:05.963Z,98400.06
2023-01-17T16:56:11.199Z,98395.94
2023-01-17T16:57:14.183Z,98404.66
2023-01-17T16:58:25.987Z,98409.22
2023-01-17T16:59:39.524Z,98403.16
2023-01-17T17:00:48.926Z,98399.84
2023-01-17T17:01:52.958Z,98396.53
2023-01-17T17:03:05.503Z,98401.78
2023-01-17T17:04:10.481Z,98398.47
2023-01-17T17:05:12.081Z,98407.19
2023-01-17T17:06:15.402Z,98411.59
2023-01-17T17:07:18.333Z,98397.78
2023-01-17T17:08:20.636Z,98408.28
2023-01-17T17:09:24.141Z,98406.63
2023-01-17T17:10:27.679Z,98409.41
2023-01-17T17:11:30.363Z,98412.97
2023-01-17T17:12:34.265Z,98408.72
2023-01-17T17:13:36.837Z,98410.50
2023-01-17T17:14:39.422Z,98410.63
2023-01-17T17:15:42.833Z,98409.84
2023-01-17T17:16:45.417Z,98417.00
2023-01-17T17:17:47.992Z,98414.38
2023-01-17T17:18:56.421Z,98417.00
2023-01-17T17:20:00.242Z,98409.28
2023-01-17T17:21:02.968Z,98413.72
2023-01-17T17:22:15.448Z,98413.72
2023-01-17T17:23:18.279Z,98414.66
2023-01-17T17:24:20.800Z,98414.00
2023-01-17T17:25:22.309Z,98414.81
2023-01-17T17:26:26.614Z,98420.19
2023-01-17T17:27:39.650Z,98423.78
2023-01-17T17:28:42.271Z,98422.16
2023-01-17T17:29:43.795Z,98427.53
2023-01-17T17:30:46.318Z,98425.06
2023-01-17T17:31:48.862Z,98429.47
2023-01-17T17:32:50.381Z,98427.81
2023-01-17T17:33:52.942Z,98434.00
2023-01-17T17:34:55.450Z,98435.00
2023-01-17T17:36:04.172Z,98432.50
2023-01-17T17:37:07.683Z,98430.03
2023-01-17T17:38:09.208Z,98431.84
2023-01-17T17:39:14.643Z,98425.88
2023-01-17T17:40:17.589Z,98431.97
2023-01-17T17:41:20.910Z,98433.06
2023-01-17T17:42:23.447Z,98431.41
2023-01-17T17:43:26.646Z,98431.41
2023-01-17T17:44:29.273Z,98435.00
2023-01-17T17:45:31.753Z,98432.53
2023-01-17T17:46:34.808Z,98434.31
2023-01-17T17:47:37.385Z,98440.50
2023-01-17T17:48:50.402Z,98439.72
2023-01-17T17:49:53.296Z,98442.47
2023-01-17T17:50:59.685Z,98444.41
2023-01-17T17:52:07.827Z,98444.41
2023-01-17T17:53:09.366Z,98446.31
2023-01-17T17:54:13.935Z,98448.28
2023-01-17T17:55:18.950Z,98447.44
2023-01-17T17:56:22.806Z,98447.59
2023-01-17T17:57:38.618Z,98447.72
2023-01-17T17:58:40.252Z,98444.41
2023-01-17T17:59:43.024Z,98444.41
2023-01-17T18:00:44.562Z,98456.69
2023-01-17T18:01:55.063Z,98452.41
2023-01-17T18:02:56.644Z,98453.38
2023-01-17T18:04:03.120Z,98454.34
2023-01-17T18:05:06.529Z,98457.94
2023-01-17T18:06:10.990Z,98457.25
2023-01-17T18:07:14.826Z,98458.22
2023-01-17T18:08:16.363Z,98455.59
2023-01-17T18:09:18.935Z,98454.75
2023-01-17T18:10:20.454Z,98456.69
2023-01-17T18:11:25.952Z,98462.06
2023-01-17T18:12:27.798Z,98463.72
2023-01-17T18:13:31.250Z,98460.41
2023-01-17T18:14:33.010Z,98461.38
2023-01-17T18:15:35.555Z,98458.75
2023-01-17T18:16:41.547Z,98464.97
2023-01-17T18:17:44.077Z,98467.59
2023-01-17T18:18:48.361Z,98469.25
2023-01-17T18:19:50.839Z,98472.97
2023-01-17T18:20:53.742Z,98473.78
2023-01-17T18:21:56.408Z,98487.88
2023-01-17T18:22:59.280Z,98466.19
2023-01-17T18:24:03.619Z,98475.84
2023-01-17T18:25:13.290Z,98473.38
2023-01-17T18:26:16.721Z,98474.34
2023-01-17T18:27:19.760Z,98472.81
2023-01-17T18:28:21.275Z,98472.00
2023-01-17T18:29:25.340Z,98475.56
2023-01-17T18:30:27.827Z,98477.22
2023-01-17T18:31:32.743Z,98474.75
2023-01-17T18:32:44.529Z,98478.34
2023-01-17T18:33:47.073Z,98471.44
2023-01-17T18:34:59.576Z,98481.91
2023-01-17T18:36:05.138Z,98476.81
2023-01-17T18:37:17.723Z,98479.44
2023-01-17T18:38:37.745Z,98484.81
2023-01-17T18:39:50.251Z,98485.63
2023-01-17T18:41:02.353Z,98486.59
2023-01-17T18:42:05.173Z,98484.13
2023-01-17T18:43:06.694Z,98487.84
2023-01-17T18:44:12.055Z,98491.44
2023-01-17T18:45:22.083Z,98487.97
2023-01-17T18:46:26.655Z,98493.38
2023-01-17T18:47:30.136Z,98492.66
2023-01-17T18:48:35.459Z,98490.88
2023-01-17T18:49:38.477Z,98490.03
2023-01-17T18:50:39.988Z,98486.84
2023-01-17T18:51:46.362Z,98482.44
2023-01-17T18:52:48.872Z,98486.84
2023-01-17T18:53:53.911Z,98495.56
2023-01-17T18:54:56.388Z,98490.47
2023-01-17T18:56:09.958Z,98494.03
2023-01-17T18:57:13.009Z,98494.16
2023-01-17T18:58:15.179Z,98491.53
2023-01-17T18:59:19.533Z,98495.13
2023-01-17T19:00:31.135Z,98489.91
2023-01-17T19:01:44.443Z,98493.59
2023-01-17T19:02:56.033Z,98491.81
2023-01-17T19:04:08.812Z,98490.97
2023-01-17T19:05:11.820Z,98493.75
2023-01-17T19:06:18.076Z,98495.41
2023-01-17T19:07:28.959Z,98492.91
2023-01-17T19:08:35.685Z,98490.41
2023-01-17T19:09:49.533Z,98499.25
2023-01-17T19:10:54.403Z,98492.34
2023-01-17T19:11:58.155Z,98494.13
2023-01-17T19:13:10.486Z,98493.44
2023-01-17T19:14:23.008Z,98497.84
2023-01-17T19:15:36.018Z,98500.59
2023-01-17T19:16:41.208Z,98503.34
2023-01-17T19:17:43.786Z,98505.16
2023-01-17T19:18:46.195Z,98505.31
2023-01-17T19:19:49.269Z,98502.78
2023-01-17T19:20:50.814Z,98502.91
2023-01-17T19:21:53.727Z,98503.91
2023-01-17T19:23:05.390Z,98507.47
2023-01-17T19:24:08.777Z,98507.63
2023-01-17T19:25:12.599Z,98504.44
2023-01-17T19:26:16.581Z,98514.06
2023-01-17T19:27:29.110Z,98511.56
2023-01-17T19:28:44.194Z,98505.38
2023-01-17T19:29:46.670Z,98507.16
2023-01-17T19:30:49.559Z,98504.69
2023-01-17T19:31:52.634Z,98515.19
2023-01-17T19:32:55.886Z,98516.97
2023-01-17T19:34:00.977Z,98513.50
2023-01-17T19:35:02.564Z,98518.75
2023-01-17T19:36:08.763Z,98522.31
2023-01-17T19:37:21.245Z,98519.69
2023-01-17T19:38:22.773Z,98519.00
2023-01-17T19:39:28.149Z,98527.81
2023-01-17T19:40:31.378Z,98534.00
2023-01-17T19:41:41.538Z,98523.53
2023-01-17T19:42:54.033Z,98524.53
2023-01-17T19:44:08.738Z,98523.94
2023-01-17T19:45:13.226Z,98533.69
2023-01-17T19:46:18.812Z,98531.09
2023-01-17T19:47:21.532Z,98531.22
2023-01-17T19:48:23.046Z,98537.41
2023-01-17T19:49:25.522Z,98531.50
2023-01-17T19:50:27.270Z,98531.50
2023-01-17T19:51:30.074Z,98531.50
2023-01-17T19:52:36.266Z,98528.03
2023-01-17T19:53:40.523Z,98533.41
2023-01-17T19:54:43.031Z,98537.69
2023-01-17T19:55:56.861Z,98535.06
2023-01-17T19:57:09.355Z,98541.25
2023-01-17T19:58:12.521Z,98539.47
2023-01-17T19:59:16.145Z,98536.00
2023-01-17T20:00:20.398Z,98541.25
2023-01-17T20:01:30.000Z,98543.88
2023-01-17T20:02:34.565Z,98544.84
2023-01-17T20:03:38.323Z,98537.13
2023-01-17T20:04:40.928Z,98547.59
2023-01-17T20:05:57.493Z,98548.41
2023-01-17T20:06:59.971Z,98544.03
2023-01-17T20:08:02.992Z,98541.50
2023-01-17T20:09:06.520Z,98545.13
2023-01-17T20:10:20.871Z,98548.53
2023-01-17T20:11:34.795Z,98546.75
2023-01-17T20:12:47.639Z,98553.91
2023-01-17T20:13:53.800Z,98554.88
2023-01-17T20:14:56.253Z,98552.25
2023-01-17T20:16:02.531Z,98555.69
2023-01-17T20:17:05.051Z,98559.16
2023-01-17T20:18:06.607Z,98563.56
2023-01-17T20:19:09.097Z,98559.28
2023-01-17T20:20:22.661Z,98567.97
2023-01-17T20:21:26.403Z,98560.25
2023-01-17T20:22:28.937Z,98569.06
2023-01-17T20:23:35.287Z,98563.81
2023-01-17T20:24:47.908Z,98568.22
2023-01-17T20:26:01.463Z,98563.94
2023-01-17T20:27:04.800Z,98564.06
2023-01-17T20:28:07.333Z,98567.66
2023-01-17T20:29:13.383Z,98559.94
2023-01-17T20:30:20.511Z,98572.03
2023-01-17T20:31:26.662Z,98562.66
2023-01-17T20:32:29.249Z,98571.34
2023-01-17T20:33:42.085Z,98568.06
2023-01-17T20:34:45.545Z,98569.00
2023-01-17T20:35:47.137Z,98572.56
2023-01-17T20:36:49.669Z,98575.19
2023-01-17T20:38:02.163Z,98568.31
2023-01-17T20:39:15.736Z,98576.16
2023-01-17T20:40:20.133Z,98570.94
2023-01-17T20:41:24.077Z,98577.09
2023-01-17T20:42:26.943Z,98575.31
2023-01-17T20:43:32.166Z,98574.50
2023-01-17T20:44:34.704Z,98584.13
2023-01-17T20:45:36.281Z,98581.66
2023-01-17T20:46:41.137Z,98581.78
2023-01-17T20:47:54.904Z,98586.06
2023-01-17T20:49:00.585Z,98578.47
2023-01-17T20:50:05.965Z,98582.84
2023-01-17T20:51:10.452Z,98580.34
2023-01-17T20:52:22.970Z,98580.34
2023-01-17T20:53:35.772Z,98590.00
2023-01-17T20:54:38.244Z,98585.72
2023-01-17T20:55:39.856Z,98587.63
2023-01-17T20:56:43.291Z,98588.47
2023-01-17T20:57:47.125Z,98586.78
2023-01-17T20:58:51.767Z,98591.22
2023-01-17T20:59:55.505Z,98588.72
2023-01-17T21:00:58.867Z,98598.34
2023-01-17T21:02:02.891Z,98590.50
2023-01-17T21:03:04.614Z,98594.91
2023-01-17T21:04:09.877Z,98592.28
2023-01-17T21:05:12.732Z,98593.25
2023-01-17T21:06:25.940Z,98599.34
2023-01-17T21:07:37.255Z,98599.44
2023-01-17T21:08:41.519Z,98599.56
2023-01-17T21:09:44.056Z,98593.53
2023-01-17T21:10:47.435Z,98598.88
2023-01-17T21:11:50.382Z,98603.25
2023-01-17T21:12:54.404Z,98601.72
2023-01-17T21:13:57.286Z,98603.50
2023-01-17T21:15:11.238Z,98596.63
2023-01-17T21:16:16.295Z,98605.44
2023-01-17T21:17:19.138Z,98608.16
2023-01-17T21:18:31.831Z,98602.09
2023-01-17T21:19:44.478Z,98604.84
2023-01-17T21:20:54.688Z,98604.84
2023-01-17T21:21:57.201Z,98602.34
2023-01-17T21:22:58.732Z,98608.41
2023-01-17T21:24:01.589Z,98606.75
2023-01-17T21:25:04.116Z,98609.38
2023-01-17T21:26:06.798Z,98616.53
2023-01-17T21:27:09.320Z,98613.22
2023-01-17T21:28:23.045Z,98618.44
2023-01-17T21:29:28.928Z,98618.44
2023-01-17T21:30:31.241Z,98611.53
2023-01-17T21:31:45.014Z,98615.09
2023-01-17T21:32:57.504Z,98606.56
2023-01-17T21:34:02.274Z,98610.13
2023-01-17T21:35:05.157Z,98617.13
2023-01-17T21:36:08.392Z,98615.75
2023-01-17T21:37:11.270Z,98611.31
2023-01-17T21:38:14.276Z,98606.34